Ardsley, New York
Current Conditions -  °F | °C
As of 12:56 AM on Thursday 27 Nov 2014 (Local Time) from KHPN Reporting Station
Overcast Overcast  
Wind Chill: 22°   Ceiling: 7500
Heat Index: 33°   Visibility: 10mi
Dew Point: 29°   Wind: 18mph
Humidity: 85%   Direction: 330°NNW
Pressure: 29.81"   Gusts: NA
Location:  41.01°N, 73.84°W
Report Text: KHPN 270556Z 33016KT 10SM SCT014 OVC075 01/M02 A2981 RMK AO2 SLP103 60003 T00061017 10011 20006 53016
Loading
Personal Weather Stations






























Interactive Weather Map New forecast layout! Learn more

10-Day Weather Forecast

Advertisements
Track Severe Weather on mobile